Impacts TAF Board
For situational awareness. Not to be used for flight planning purposes.
IDs:

KMIA - Miami Intl, FL, US

Issued at 0301 UTC 22 Oct 2018
Updated at 0511 UTC 22 Oct 2018
Potential Impact None Slight Moderate High
Time0453Z 22/06Z 22/07Z 22/08Z 22/09Z 22/10Z 22/11Z 22/12Z 22/13Z 22/14Z 22/15Z 22/16Z 22/17Z 22/18Z>>
Type OBS PRVL PRVL PRVL PRVL PRVL PRVL PRVL PRVL PRVL PRVL PRVL PRVL PRVL
VIS 10 >6 >6 >6 >6 >6 >6 >6 >6 >6 >6 >6 >6 >6
CIG -- 50 50 50 50 50 50 50 50 50 50 50 50 50
Cover SCT BKN BKN BKN BKN BKN BKN BKN BKN BKN BKN BKN BKN BKN
FltCat VFR VFR VFR VFR VFR VFR VFR VFR VFR VFR VFR VFR VFR VFR
WX -- -- -- -- -- -- -- -- -- -- -- -- -- --
WDir 50 40 40 40 40 40 40 40 40 70 70 70 70 70
WSpd 6 10 10 10 10 10 10 10 10 15 15 15 15 15
WGst -- -- -- -- -- -- -- -- -- -- -- -- -- --
Raw TAF
KMIA 220301Z 2203/2306 04010KT P6SM SCT040 BKN050 BKN120
  FM221400 07015KT P6SM SCT030 BKN050
  FM222300 07010KT P6SM FEW030 SCT050


Raw METAR
KMIA 220453Z 05006KT 10SM FEW027 SCT070 SCT250 26/21 A3003 RMK AO2 SLP167 T02610211 403280239
KMIA 220353Z 05009KT 10SM FEW027 SCT065 SCT080 BKN250 26/22 A3003 RMK AO2 SLP170 T02610217
KMIA 220253Z 04008G18KT 10SM SCT027 BKN040 BKN080 BKN250 27/22 A3004 RMK AO2 SLP171 T02670217 51013

METAR Board
Radar Display
Forecast Discussion
For situational awareness. Not to be used for flight planning purposes.